<?xml version="1.0" encoding="UTF-8" standalone="no" ?>
<gpx xmlns="http://www.topografix.com/GPX/1/1" xmlns:xsi="http://www.w3.org/2001/XMLSchema-instance" xsi:schemaLocation="http://www.topografix.com/GPX/1/1 http://www.topografix.com/GPX/1/1/gpx.xsd" version="1.1" creator="VisuGPX - https://www.visugpx.com">
  <metadata>
    <name>15740008-pat DENICE</name>
  </metadata>
  <trk>
    <name><![CDATA[15740008-pat DENICE]]></name>
    <trkseg>
      <trkpt lat="46.00174" lon="4.64586">
        <ele>277</ele>
        <time>2022-10-24T18:50:42Z</time>
      </trkpt>
      <trkpt lat="46.00174" lon="4.64577">
        <ele>277</ele>
        <time>2022-10-24T18:50:50Z</time>
      </trkpt>
      <trkpt lat="46.00166" lon="4.64578">
        <ele>278</ele>
        <time>2022-10-24T18:51:01Z</time>
      </trkpt>
      <trkpt lat="46.00163" lon="4.6455">
        <ele>278</ele>
        <time>2022-10-24T18:51:27Z</time>
      </trkpt>
      <trkpt lat="46.00161" lon="4.64505">
        <ele>278</ele>
        <time>2022-10-24T18:52:09Z</time>
      </trkpt>
      <trkpt lat="46.00162" lon="4.64501">
        <ele>278</ele>
        <time>2022-10-24T18:52:13Z</time>
      </trkpt>
      <trkpt lat="46.0017" lon="4.64491">
        <ele>278</ele>
        <time>2022-10-24T18:52:27Z</time>
      </trkpt>
      <trkpt lat="46.00173" lon="4.64369">
        <ele>281</ele>
        <time>2022-10-24T18:54:20Z</time>
      </trkpt>
      <trkpt lat="46.00132" lon="4.64349">
        <ele>284</ele>
        <time>2022-10-24T18:55:18Z</time>
      </trkpt>
      <trkpt lat="46.00075" lon="4.64305">
        <ele>287</ele>
        <time>2022-10-24T18:56:44Z</time>
      </trkpt>
      <trkpt lat="46.00053" lon="4.6429">
        <ele>288</ele>
        <time>2022-10-24T18:57:17Z</time>
      </trkpt>
      <trkpt lat="45.99932" lon="4.64229">
        <ele>295</ele>
        <time>2022-10-24T19:00:08Z</time>
      </trkpt>
      <trkpt lat="45.99911" lon="4.64221">
        <ele>296</ele>
        <time>2022-10-24T19:00:37Z</time>
      </trkpt>
      <trkpt lat="45.99914" lon="4.64203">
        <ele>296</ele>
        <time>2022-10-24T19:00:54Z</time>
      </trkpt>
      <trkpt lat="45.99903" lon="4.64197">
        <ele>297</ele>
        <time>2022-10-24T19:01:10Z</time>
      </trkpt>
      <trkpt lat="45.99892" lon="4.64187">
        <ele>297</ele>
        <time>2022-10-24T19:01:27Z</time>
      </trkpt>
      <trkpt lat="45.99841" lon="4.64123">
        <ele>301</ele>
        <time>2022-10-24T19:02:58Z</time>
      </trkpt>
      <trkpt lat="45.99821" lon="4.641">
        <ele>302</ele>
        <time>2022-10-24T19:03:32Z</time>
      </trkpt>
      <trkpt lat="45.99792" lon="4.64073">
        <ele>305</ele>
        <time>2022-10-24T19:04:18Z</time>
      </trkpt>
      <trkpt lat="45.99713" lon="4.64015">
        <ele>312</ele>
        <time>2022-10-24T19:06:16Z</time>
      </trkpt>
      <trkpt lat="45.99709" lon="4.64022">
        <ele>312</ele>
        <time>2022-10-24T19:06:24Z</time>
      </trkpt>
      <trkpt lat="45.99706" lon="4.64053">
        <ele>311</ele>
        <time>2022-10-24T19:06:54Z</time>
      </trkpt>
      <trkpt lat="45.99687" lon="4.64055">
        <ele>313</ele>
        <time>2022-10-24T19:07:19Z</time>
      </trkpt>
      <trkpt lat="45.9966" lon="4.64047">
        <ele>316</ele>
        <time>2022-10-24T19:07:56Z</time>
      </trkpt>
      <trkpt lat="45.99628" lon="4.64028">
        <ele>321</ele>
        <time>2022-10-24T19:08:42Z</time>
      </trkpt>
      <trkpt lat="45.996" lon="4.63991">
        <ele>327</ele>
        <time>2022-10-24T19:09:33Z</time>
      </trkpt>
      <trkpt lat="45.99585" lon="4.63968">
        <ele>331</ele>
        <time>2022-10-24T19:10:02Z</time>
      </trkpt>
      <trkpt lat="45.99566" lon="4.63931">
        <ele>337</ele>
        <time>2022-10-24T19:10:45Z</time>
      </trkpt>
      <trkpt lat="45.99552" lon="4.63893">
        <ele>341</ele>
        <time>2022-10-24T19:11:24Z</time>
      </trkpt>
      <trkpt lat="45.99546" lon="4.63865">
        <ele>343</ele>
        <time>2022-10-24T19:11:52Z</time>
      </trkpt>
      <trkpt lat="45.9954" lon="4.63853">
        <ele>345</ele>
        <time>2022-10-24T19:12:05Z</time>
      </trkpt>
      <trkpt lat="45.99508" lon="4.6382">
        <ele>351</ele>
        <time>2022-10-24T19:12:58Z</time>
      </trkpt>
      <trkpt lat="45.99491" lon="4.638">
        <ele>353</ele>
        <time>2022-10-24T19:13:27Z</time>
      </trkpt>
      <trkpt lat="45.99437" lon="4.63761">
        <ele>356</ele>
        <time>2022-10-24T19:14:48Z</time>
      </trkpt>
      <trkpt lat="45.99415" lon="4.63733">
        <ele>358</ele>
        <time>2022-10-24T19:15:27Z</time>
      </trkpt>
      <trkpt lat="45.99403" lon="4.63713">
        <ele>359</ele>
        <time>2022-10-24T19:15:51Z</time>
      </trkpt>
      <trkpt lat="45.99385" lon="4.63698">
        <ele>361</ele>
        <time>2022-10-24T19:16:19Z</time>
      </trkpt>
      <trkpt lat="45.99359" lon="4.6367">
        <ele>364</ele>
        <time>2022-10-24T19:17:03Z</time>
      </trkpt>
      <trkpt lat="45.99351" lon="4.63664">
        <ele>365</ele>
        <time>2022-10-24T19:17:15Z</time>
      </trkpt>
      <trkpt lat="45.99331" lon="4.63589">
        <ele>363</ele>
        <time>2022-10-24T19:18:29Z</time>
      </trkpt>
      <trkpt lat="45.99321" lon="4.63587">
        <ele>364</ele>
        <time>2022-10-24T19:18:43Z</time>
      </trkpt>
      <trkpt lat="45.99309" lon="4.63585">
        <ele>365</ele>
        <time>2022-10-24T19:18:59Z</time>
      </trkpt>
      <trkpt lat="45.99309" lon="4.63576">
        <ele>364</ele>
        <time>2022-10-24T19:19:07Z</time>
      </trkpt>
      <trkpt lat="45.99304" lon="4.63522">
        <ele>362</ele>
        <time>2022-10-24T19:19:57Z</time>
      </trkpt>
      <trkpt lat="45.99298" lon="4.63478">
        <ele>361</ele>
        <time>2022-10-24T19:20:39Z</time>
      </trkpt>
      <trkpt lat="45.99297" lon="4.63458">
        <ele>361</ele>
        <time>2022-10-24T19:20:58Z</time>
      </trkpt>
      <trkpt lat="45.99292" lon="4.63434">
        <ele>360</ele>
        <time>2022-10-24T19:21:21Z</time>
      </trkpt>
      <trkpt lat="45.99274" lon="4.63385">
        <ele>362</ele>
        <time>2022-10-24T19:22:12Z</time>
      </trkpt>
      <trkpt lat="45.99272" lon="4.63373">
        <ele>362</ele>
        <time>2022-10-24T19:22:24Z</time>
      </trkpt>
      <trkpt lat="45.9928" lon="4.63298">
        <ele>364</ele>
        <time>2022-10-24T19:23:34Z</time>
      </trkpt>
      <trkpt lat="45.99284" lon="4.63241">
        <ele>368</ele>
        <time>2022-10-24T19:24:27Z</time>
      </trkpt>
      <trkpt lat="45.99299" lon="4.63222">
        <ele>368</ele>
        <time>2022-10-24T19:24:54Z</time>
      </trkpt>
      <trkpt lat="45.99334" lon="4.63193">
        <ele>368</ele>
        <time>2022-10-24T19:25:48Z</time>
      </trkpt>
      <trkpt lat="45.99364" lon="4.6316">
        <ele>366</ele>
        <time>2022-10-24T19:26:38Z</time>
      </trkpt>
      <trkpt lat="45.99394" lon="4.6311">
        <ele>366</ele>
        <time>2022-10-24T19:27:39Z</time>
      </trkpt>
      <trkpt lat="45.99421" lon="4.63077">
        <ele>363</ele>
        <time>2022-10-24T19:28:27Z</time>
      </trkpt>
      <trkpt lat="45.99454" lon="4.63024">
        <ele>359</ele>
        <time>2022-10-24T19:29:33Z</time>
      </trkpt>
      <trkpt lat="45.99466" lon="4.62996">
        <ele>357</ele>
        <time>2022-10-24T19:30:03Z</time>
      </trkpt>
      <trkpt lat="45.99487" lon="4.62928">
        <ele>356</ele>
        <time>2022-10-24T19:31:12Z</time>
      </trkpt>
      <trkpt lat="45.99501" lon="4.62868">
        <ele>359</ele>
        <time>2022-10-24T19:32:11Z</time>
      </trkpt>
      <trkpt lat="45.99511" lon="4.62815">
        <ele>362</ele>
        <time>2022-10-24T19:33:02Z</time>
      </trkpt>
      <trkpt lat="45.99519" lon="4.62797">
        <ele>362</ele>
        <time>2022-10-24T19:33:21Z</time>
      </trkpt>
      <trkpt lat="45.99516" lon="4.62809">
        <ele>362</ele>
        <time>2022-10-24T19:33:33Z</time>
      </trkpt>
      <trkpt lat="45.99518" lon="4.62822">
        <ele>361</ele>
        <time>2022-10-24T19:33:46Z</time>
      </trkpt>
      <trkpt lat="45.99516" lon="4.62809">
        <ele>362</ele>
        <time>2022-10-24T19:33:58Z</time>
      </trkpt>
      <trkpt lat="45.99519" lon="4.62797">
        <ele>362</ele>
        <time>2022-10-24T19:34:10Z</time>
      </trkpt>
      <trkpt lat="45.99491" lon="4.62743">
        <ele>364</ele>
        <time>2022-10-24T19:35:12Z</time>
      </trkpt>
      <trkpt lat="45.99454" lon="4.62688">
        <ele>364</ele>
        <time>2022-10-24T19:36:23Z</time>
      </trkpt>
      <trkpt lat="45.99362" lon="4.62599">
        <ele>366</ele>
        <time>2022-10-24T19:38:51Z</time>
      </trkpt>
      <trkpt lat="45.99325" lon="4.62573">
        <ele>366</ele>
        <time>2022-10-24T19:39:46Z</time>
      </trkpt>
      <trkpt lat="45.99289" lon="4.62559">
        <ele>369</ele>
        <time>2022-10-24T19:40:36Z</time>
      </trkpt>
      <trkpt lat="45.99241" lon="4.62526">
        <ele>371</ele>
        <time>2022-10-24T19:41:47Z</time>
      </trkpt>
      <trkpt lat="45.9919" lon="4.62486">
        <ele>371</ele>
        <time>2022-10-24T19:43:04Z</time>
      </trkpt>
      <trkpt lat="45.99172" lon="4.62469">
        <ele>372</ele>
        <time>2022-10-24T19:43:33Z</time>
      </trkpt>
      <trkpt lat="45.99175" lon="4.62462">
        <ele>372</ele>
        <time>2022-10-24T19:43:41Z</time>
      </trkpt>
      <trkpt lat="45.99171" lon="4.62454">
        <ele>372</ele>
        <time>2022-10-24T19:43:50Z</time>
      </trkpt>
      <trkpt lat="45.99172" lon="4.6243">
        <ele>372</ele>
        <time>2022-10-24T19:44:12Z</time>
      </trkpt>
      <trkpt lat="45.99184" lon="4.62324">
        <ele>372</ele>
        <time>2022-10-24T19:45:52Z</time>
      </trkpt>
      <trkpt lat="45.992" lon="4.62284">
        <ele>372</ele>
        <time>2022-10-24T19:46:35Z</time>
      </trkpt>
      <trkpt lat="45.99217" lon="4.62262">
        <ele>373</ele>
        <time>2022-10-24T19:47:05Z</time>
      </trkpt>
      <trkpt lat="45.99236" lon="4.62247">
        <ele>374</ele>
        <time>2022-10-24T19:47:34Z</time>
      </trkpt>
      <trkpt lat="45.99261" lon="4.6223">
        <ele>377</ele>
        <time>2022-10-24T19:48:11Z</time>
      </trkpt>
      <trkpt lat="45.99271" lon="4.62227">
        <ele>378</ele>
        <time>2022-10-24T19:48:25Z</time>
      </trkpt>
      <trkpt lat="45.99307" lon="4.62229">
        <ele>379</ele>
        <time>2022-10-24T19:49:13Z</time>
      </trkpt>
      <trkpt lat="45.99311" lon="4.62235">
        <ele>379</ele>
        <time>2022-10-24T19:49:20Z</time>
      </trkpt>
      <trkpt lat="45.99307" lon="4.62229">
        <ele>379</ele>
        <time>2022-10-24T19:49:28Z</time>
      </trkpt>
      <trkpt lat="45.99319" lon="4.62187">
        <ele>382</ele>
        <time>2022-10-24T19:50:10Z</time>
      </trkpt>
      <trkpt lat="45.99329" lon="4.62162">
        <ele>383</ele>
        <time>2022-10-24T19:50:37Z</time>
      </trkpt>
      <trkpt lat="45.99339" lon="4.62153">
        <ele>384</ele>
        <time>2022-10-24T19:50:53Z</time>
      </trkpt>
      <trkpt lat="45.99369" lon="4.62158">
        <ele>383</ele>
        <time>2022-10-24T19:51:33Z</time>
      </trkpt>
      <trkpt lat="45.99399" lon="4.62166">
        <ele>383</ele>
        <time>2022-10-24T19:52:14Z</time>
      </trkpt>
      <trkpt lat="45.99401" lon="4.62021">
        <ele>392</ele>
        <time>2022-10-24T19:54:28Z</time>
      </trkpt>
      <trkpt lat="45.99373" lon="4.61955">
        <ele>399</ele>
        <time>2022-10-24T19:55:40Z</time>
      </trkpt>
      <trkpt lat="45.99334" lon="4.61841">
        <ele>413</ele>
        <time>2022-10-24T19:57:38Z</time>
      </trkpt>
      <trkpt lat="45.99308" lon="4.61758">
        <ele>421</ele>
        <time>2022-10-24T19:59:02Z</time>
      </trkpt>
      <trkpt lat="45.99305" lon="4.61727">
        <ele>422</ele>
        <time>2022-10-24T19:59:31Z</time>
      </trkpt>
      <trkpt lat="45.99308" lon="4.61616">
        <ele>424</ele>
        <time>2022-10-24T20:01:14Z</time>
      </trkpt>
      <trkpt lat="45.99316" lon="4.6159">
        <ele>424</ele>
        <time>2022-10-24T20:01:40Z</time>
      </trkpt>
      <trkpt lat="45.99336" lon="4.61491">
        <ele>427</ele>
        <time>2022-10-24T20:03:16Z</time>
      </trkpt>
      <trkpt lat="45.99345" lon="4.6144">
        <ele>430</ele>
        <time>2022-10-24T20:04:05Z</time>
      </trkpt>
      <trkpt lat="45.99355" lon="4.61377">
        <ele>435</ele>
        <time>2022-10-24T20:05:05Z</time>
      </trkpt>
      <trkpt lat="45.99369" lon="4.61312">
        <ele>438</ele>
        <time>2022-10-24T20:06:08Z</time>
      </trkpt>
      <trkpt lat="45.99385" lon="4.61269">
        <ele>439</ele>
        <time>2022-10-24T20:06:53Z</time>
      </trkpt>
      <trkpt lat="45.99404" lon="4.61203">
        <ele>445</ele>
        <time>2022-10-24T20:07:59Z</time>
      </trkpt>
      <trkpt lat="45.99411" lon="4.61154">
        <ele>451</ele>
        <time>2022-10-24T20:08:46Z</time>
      </trkpt>
      <trkpt lat="45.99419" lon="4.61038">
        <ele>457</ele>
        <time>2022-10-24T20:10:34Z</time>
      </trkpt>
      <trkpt lat="45.99395" lon="4.60807">
        <ele>464</ele>
        <time>2022-10-24T20:14:10Z</time>
      </trkpt>
      <trkpt lat="45.99394" lon="4.60756">
        <ele>466</ele>
        <time>2022-10-24T20:14:57Z</time>
      </trkpt>
      <trkpt lat="45.99385" lon="4.60717">
        <ele>470</ele>
        <time>2022-10-24T20:15:36Z</time>
      </trkpt>
      <trkpt lat="45.99408" lon="4.60623">
        <ele>468</ele>
        <time>2022-10-24T20:17:08Z</time>
      </trkpt>
      <trkpt lat="45.99433" lon="4.6049">
        <ele>471</ele>
        <time>2022-10-24T20:19:16Z</time>
      </trkpt>
      <trkpt lat="45.99429" lon="4.6045">
        <ele>476</ele>
        <time>2022-10-24T20:19:53Z</time>
      </trkpt>
      <trkpt lat="45.99464" lon="4.6022">
        <ele>481</ele>
        <time>2022-10-24T20:23:31Z</time>
      </trkpt>
      <trkpt lat="45.99461" lon="4.60125">
        <ele>484</ele>
        <time>2022-10-24T20:25:00Z</time>
      </trkpt>
      <trkpt lat="45.99462" lon="4.60107">
        <ele>484</ele>
        <time>2022-10-24T20:25:16Z</time>
      </trkpt>
      <trkpt lat="45.9947" lon="4.60087">
        <ele>483</ele>
        <time>2022-10-24T20:25:38Z</time>
      </trkpt>
      <trkpt lat="45.99484" lon="4.60041">
        <ele>480</ele>
        <time>2022-10-24T20:26:24Z</time>
      </trkpt>
      <trkpt lat="45.99508" lon="4.59995">
        <ele>476</ele>
        <time>2022-10-24T20:27:18Z</time>
      </trkpt>
      <trkpt lat="45.99538" lon="4.5995">
        <ele>476</ele>
        <time>2022-10-24T20:28:15Z</time>
      </trkpt>
      <trkpt lat="45.99567" lon="4.59917">
        <ele>475</ele>
        <time>2022-10-24T20:29:05Z</time>
      </trkpt>
      <trkpt lat="45.99607" lon="4.59885">
        <ele>474</ele>
        <time>2022-10-24T20:30:06Z</time>
      </trkpt>
      <trkpt lat="45.99631" lon="4.59874">
        <ele>474</ele>
        <time>2022-10-24T20:30:39Z</time>
      </trkpt>
      <trkpt lat="45.99653" lon="4.59873">
        <ele>473</ele>
        <time>2022-10-24T20:31:09Z</time>
      </trkpt>
      <trkpt lat="45.99688" lon="4.59874">
        <ele>471</ele>
        <time>2022-10-24T20:31:56Z</time>
      </trkpt>
      <trkpt lat="45.99715" lon="4.5987">
        <ele>470</ele>
        <time>2022-10-24T20:32:32Z</time>
      </trkpt>
      <trkpt lat="45.99739" lon="4.59863">
        <ele>469</ele>
        <time>2022-10-24T20:33:04Z</time>
      </trkpt>
      <trkpt lat="45.99781" lon="4.59858">
        <ele>467</ele>
        <time>2022-10-24T20:34:01Z</time>
      </trkpt>
      <trkpt lat="45.99808" lon="4.59851">
        <ele>465</ele>
        <time>2022-10-24T20:34:37Z</time>
      </trkpt>
      <trkpt lat="45.99825" lon="4.59842">
        <ele>464</ele>
        <time>2022-10-24T20:35:01Z</time>
      </trkpt>
      <trkpt lat="45.99862" lon="4.59836">
        <ele>458</ele>
        <time>2022-10-24T20:35:51Z</time>
      </trkpt>
      <trkpt lat="45.99928" lon="4.5981">
        <ele>445</ele>
        <time>2022-10-24T20:37:22Z</time>
      </trkpt>
      <trkpt lat="45.99946" lon="4.59795">
        <ele>441</ele>
        <time>2022-10-24T20:37:50Z</time>
      </trkpt>
      <trkpt lat="45.99966" lon="4.59788">
        <ele>438</ele>
        <time>2022-10-24T20:38:18Z</time>
      </trkpt>
      <trkpt lat="45.99994" lon="4.59784">
        <ele>434</ele>
        <time>2022-10-24T20:38:55Z</time>
      </trkpt>
      <trkpt lat="46.00024" lon="4.59783">
        <ele>429</ele>
        <time>2022-10-24T20:39:35Z</time>
      </trkpt>
      <trkpt lat="46.00068" lon="4.59794">
        <ele>421</ele>
        <time>2022-10-24T20:40:35Z</time>
      </trkpt>
      <trkpt lat="46.00071" lon="4.59803">
        <ele>420</ele>
        <time>2022-10-24T20:40:44Z</time>
      </trkpt>
      <trkpt lat="46.00095" lon="4.59817">
        <ele>414</ele>
        <time>2022-10-24T20:41:19Z</time>
      </trkpt>
      <trkpt lat="46.0011" lon="4.59824">
        <ele>411</ele>
        <time>2022-10-24T20:41:40Z</time>
      </trkpt>
      <trkpt lat="46.00137" lon="4.59831">
        <ele>405</ele>
        <time>2022-10-24T20:42:16Z</time>
      </trkpt>
      <trkpt lat="46.00159" lon="4.5983">
        <ele>400</ele>
        <time>2022-10-24T20:42:46Z</time>
      </trkpt>
      <trkpt lat="46.00215" lon="4.59834">
        <ele>386</ele>
        <time>2022-10-24T20:44:01Z</time>
      </trkpt>
      <trkpt lat="46.00231" lon="4.59828">
        <ele>383</ele>
        <time>2022-10-24T20:44:23Z</time>
      </trkpt>
      <trkpt lat="46.00267" lon="4.59836">
        <ele>375</ele>
        <time>2022-10-24T20:45:11Z</time>
      </trkpt>
      <trkpt lat="46.00279" lon="4.5984">
        <ele>373</ele>
        <time>2022-10-24T20:45:28Z</time>
      </trkpt>
      <trkpt lat="46.00323" lon="4.59865">
        <ele>368</ele>
        <time>2022-10-24T20:46:31Z</time>
      </trkpt>
      <trkpt lat="46.00343" lon="4.59873">
        <ele>366</ele>
        <time>2022-10-24T20:46:58Z</time>
      </trkpt>
      <trkpt lat="46.00385" lon="4.59865">
        <ele>363</ele>
        <time>2022-10-24T20:47:55Z</time>
      </trkpt>
      <trkpt lat="46.00409" lon="4.59865">
        <ele>361</ele>
        <time>2022-10-24T20:48:27Z</time>
      </trkpt>
      <trkpt lat="46.00422" lon="4.59872">
        <ele>360</ele>
        <time>2022-10-24T20:48:46Z</time>
      </trkpt>
      <trkpt lat="46.0044" lon="4.59894">
        <ele>356</ele>
        <time>2022-10-24T20:49:17Z</time>
      </trkpt>
      <trkpt lat="46.00455" lon="4.59904">
        <ele>353</ele>
        <time>2022-10-24T20:49:39Z</time>
      </trkpt>
      <trkpt lat="46.00519" lon="4.59925">
        <ele>342</ele>
        <time>2022-10-24T20:51:07Z</time>
      </trkpt>
      <trkpt lat="46.00524" lon="4.59915">
        <ele>342</ele>
        <time>2022-10-24T20:51:18Z</time>
      </trkpt>
      <trkpt lat="46.00532" lon="4.59903">
        <ele>343</ele>
        <time>2022-10-24T20:51:34Z</time>
      </trkpt>
      <trkpt lat="46.0054" lon="4.59893">
        <ele>343</ele>
        <time>2022-10-24T20:51:48Z</time>
      </trkpt>
      <trkpt lat="46.00558" lon="4.59882">
        <ele>343</ele>
        <time>2022-10-24T20:52:14Z</time>
      </trkpt>
      <trkpt lat="46.00589" lon="4.59872">
        <ele>342</ele>
        <time>2022-10-24T20:52:56Z</time>
      </trkpt>
      <trkpt lat="46.0061" lon="4.59871">
        <ele>346</ele>
        <time>2022-10-24T20:53:24Z</time>
      </trkpt>
      <trkpt lat="46.00609" lon="4.59955">
        <ele>344</ele>
        <time>2022-10-24T20:54:42Z</time>
      </trkpt>
      <trkpt lat="46.00606" lon="4.59972">
        <ele>343</ele>
        <time>2022-10-24T20:54:58Z</time>
      </trkpt>
      <trkpt lat="46.00606" lon="4.59988">
        <ele>342</ele>
        <time>2022-10-24T20:55:13Z</time>
      </trkpt>
      <trkpt lat="46.00608" lon="4.60005">
        <ele>342</ele>
        <time>2022-10-24T20:55:29Z</time>
      </trkpt>
      <trkpt lat="46.00607" lon="4.60061">
        <ele>341</ele>
        <time>2022-10-24T20:56:21Z</time>
      </trkpt>
      <trkpt lat="46.00607" lon="4.60065">
        <ele>341</ele>
        <time>2022-10-24T20:56:25Z</time>
      </trkpt>
      <trkpt lat="46.00607" lon="4.6007">
        <ele>341</ele>
        <time>2022-10-24T20:56:29Z</time>
      </trkpt>
      <trkpt lat="46.00719" lon="4.60088">
        <ele>355</ele>
        <time>2022-10-24T20:59:00Z</time>
      </trkpt>
      <trkpt lat="46.00736" lon="4.60097">
        <ele>359</ele>
        <time>2022-10-24T20:59:24Z</time>
      </trkpt>
      <trkpt lat="46.00757" lon="4.601">
        <ele>363</ele>
        <time>2022-10-24T20:59:52Z</time>
      </trkpt>
      <trkpt lat="46.00794" lon="4.6009">
        <ele>369</ele>
        <time>2022-10-24T21:00:42Z</time>
      </trkpt>
      <trkpt lat="46.00839" lon="4.60116">
        <ele>383</ele>
        <time>2022-10-24T21:01:47Z</time>
      </trkpt>
      <trkpt lat="46.0086" lon="4.60154">
        <ele>391</ele>
        <time>2022-10-24T21:02:32Z</time>
      </trkpt>
      <trkpt lat="46.00877" lon="4.6018">
        <ele>397</ele>
        <time>2022-10-24T21:03:05Z</time>
      </trkpt>
      <trkpt lat="46.00916" lon="4.60225">
        <ele>408</ele>
        <time>2022-10-24T21:04:12Z</time>
      </trkpt>
      <trkpt lat="46.00948" lon="4.60277">
        <ele>417</ele>
        <time>2022-10-24T21:05:16Z</time>
      </trkpt>
      <trkpt lat="46.00968" lon="4.60301">
        <ele>420</ele>
        <time>2022-10-24T21:05:51Z</time>
      </trkpt>
      <trkpt lat="46.00988" lon="4.60322">
        <ele>424</ele>
        <time>2022-10-24T21:06:24Z</time>
      </trkpt>
      <trkpt lat="46.01001" lon="4.60351">
        <ele>429</ele>
        <time>2022-10-24T21:06:56Z</time>
      </trkpt>
      <trkpt lat="46.01006" lon="4.60373">
        <ele>433</ele>
        <time>2022-10-24T21:07:18Z</time>
      </trkpt>
      <trkpt lat="46.00992" lon="4.60409">
        <ele>439</ele>
        <time>2022-10-24T21:07:56Z</time>
      </trkpt>
      <trkpt lat="46.00983" lon="4.60447">
        <ele>443</ele>
        <time>2022-10-24T21:08:33Z</time>
      </trkpt>
      <trkpt lat="46.00973" lon="4.60474">
        <ele>445</ele>
        <time>2022-10-24T21:09:01Z</time>
      </trkpt>
      <trkpt lat="46.00956" lon="4.60526">
        <ele>447</ele>
        <time>2022-10-24T21:09:55Z</time>
      </trkpt>
      <trkpt lat="46.00958" lon="4.60539">
        <ele>448</ele>
        <time>2022-10-24T21:10:07Z</time>
      </trkpt>
      <trkpt lat="46.0101" lon="4.60582">
        <ele>454</ele>
        <time>2022-10-24T21:11:27Z</time>
      </trkpt>
      <trkpt lat="46.01036" lon="4.60614">
        <ele>454</ele>
        <time>2022-10-24T21:12:13Z</time>
      </trkpt>
      <trkpt lat="46.01045" lon="4.60625">
        <ele>455</ele>
        <time>2022-10-24T21:12:28Z</time>
      </trkpt>
      <trkpt lat="46.01073" lon="4.60665">
        <ele>458</ele>
        <time>2022-10-24T21:13:21Z</time>
      </trkpt>
      <trkpt lat="46.01085" lon="4.60693">
        <ele>459</ele>
        <time>2022-10-24T21:13:51Z</time>
      </trkpt>
      <trkpt lat="46.01089" lon="4.60733">
        <ele>461</ele>
        <time>2022-10-24T21:14:29Z</time>
      </trkpt>
      <trkpt lat="46.01079" lon="4.6075">
        <ele>462</ele>
        <time>2022-10-24T21:14:50Z</time>
      </trkpt>
      <trkpt lat="46.01052" lon="4.60811">
        <ele>462</ele>
        <time>2022-10-24T21:15:57Z</time>
      </trkpt>
      <trkpt lat="46.01046" lon="4.60849">
        <ele>462</ele>
        <time>2022-10-24T21:16:33Z</time>
      </trkpt>
      <trkpt lat="46.01044" lon="4.60876">
        <ele>462</ele>
        <time>2022-10-24T21:16:58Z</time>
      </trkpt>
      <trkpt lat="46.01045" lon="4.60895">
        <ele>462</ele>
        <time>2022-10-24T21:17:16Z</time>
      </trkpt>
      <trkpt lat="46.01049" lon="4.6093">
        <ele>462</ele>
        <time>2022-10-24T21:17:48Z</time>
      </trkpt>
      <trkpt lat="46.01071" lon="4.61029">
        <ele>461</ele>
        <time>2022-10-24T21:19:25Z</time>
      </trkpt>
      <trkpt lat="46.01072" lon="4.61047">
        <ele>461</ele>
        <time>2022-10-24T21:19:42Z</time>
      </trkpt>
      <trkpt lat="46.0107" lon="4.61061">
        <ele>461</ele>
        <time>2022-10-24T21:19:55Z</time>
      </trkpt>
      <trkpt lat="46.01063" lon="4.61078">
        <ele>459</ele>
        <time>2022-10-24T21:20:13Z</time>
      </trkpt>
      <trkpt lat="46.01055" lon="4.61091">
        <ele>458</ele>
        <time>2022-10-24T21:20:29Z</time>
      </trkpt>
      <trkpt lat="46.01033" lon="4.61116">
        <ele>455</ele>
        <time>2022-10-24T21:21:07Z</time>
      </trkpt>
      <trkpt lat="46.0102" lon="4.61137">
        <ele>454</ele>
        <time>2022-10-24T21:21:33Z</time>
      </trkpt>
      <trkpt lat="46.00999" lon="4.61201">
        <ele>455</ele>
        <time>2022-10-24T21:22:38Z</time>
      </trkpt>
      <trkpt lat="46.00967" lon="4.61252">
        <ele>450</ele>
        <time>2022-10-24T21:23:42Z</time>
      </trkpt>
      <trkpt lat="46.00953" lon="4.61283">
        <ele>447</ele>
        <time>2022-10-24T21:24:16Z</time>
      </trkpt>
      <trkpt lat="46.0095" lon="4.61302">
        <ele>446</ele>
        <time>2022-10-24T21:24:34Z</time>
      </trkpt>
      <trkpt lat="46.0095" lon="4.61316">
        <ele>446</ele>
        <time>2022-10-24T21:24:47Z</time>
      </trkpt>
      <trkpt lat="46.00925" lon="4.61338">
        <ele>442</ele>
        <time>2022-10-24T21:25:26Z</time>
      </trkpt>
      <trkpt lat="46.0089" lon="4.61375">
        <ele>435</ele>
        <time>2022-10-24T21:26:24Z</time>
      </trkpt>
      <trkpt lat="46.00925" lon="4.61338">
        <ele>442</ele>
        <time>2022-10-24T21:27:22Z</time>
      </trkpt>
      <trkpt lat="46.00983" lon="4.6129">
        <ele>452</ele>
        <time>2022-10-24T21:28:52Z</time>
      </trkpt>
      <trkpt lat="46.00993" lon="4.61311">
        <ele>453</ele>
        <time>2022-10-24T21:29:15Z</time>
      </trkpt>
      <trkpt lat="46.01005" lon="4.61325">
        <ele>453</ele>
        <time>2022-10-24T21:29:36Z</time>
      </trkpt>
      <trkpt lat="46.01041" lon="4.61346">
        <ele>453</ele>
        <time>2022-10-24T21:30:28Z</time>
      </trkpt>
      <trkpt lat="46.01059" lon="4.61348">
        <ele>454</ele>
        <time>2022-10-24T21:30:52Z</time>
      </trkpt>
      <trkpt lat="46.01085" lon="4.61345">
        <ele>457</ele>
        <time>2022-10-24T21:31:26Z</time>
      </trkpt>
      <trkpt lat="46.01109" lon="4.61345">
        <ele>460</ele>
        <time>2022-10-24T21:31:59Z</time>
      </trkpt>
      <trkpt lat="46.01124" lon="4.6134">
        <ele>462</ele>
        <time>2022-10-24T21:32:19Z</time>
      </trkpt>
      <trkpt lat="46.01132" lon="4.61345">
        <ele>463</ele>
        <time>2022-10-24T21:32:31Z</time>
      </trkpt>
      <trkpt lat="46.0113" lon="4.61358">
        <ele>462</ele>
        <time>2022-10-24T21:32:43Z</time>
      </trkpt>
      <trkpt lat="46.01112" lon="4.61415">
        <ele>455</ele>
        <time>2022-10-24T21:33:41Z</time>
      </trkpt>
      <trkpt lat="46.01076" lon="4.61513">
        <ele>447</ele>
        <time>2022-10-24T21:35:24Z</time>
      </trkpt>
      <trkpt lat="46.01068" lon="4.61587">
        <ele>447</ele>
        <time>2022-10-24T21:36:33Z</time>
      </trkpt>
      <trkpt lat="46.0106" lon="4.61618">
        <ele>445</ele>
        <time>2022-10-24T21:37:04Z</time>
      </trkpt>
      <trkpt lat="46.01056" lon="4.61649">
        <ele>444</ele>
        <time>2022-10-24T21:37:33Z</time>
      </trkpt>
      <trkpt lat="46.01057" lon="4.61672">
        <ele>444</ele>
        <time>2022-10-24T21:37:54Z</time>
      </trkpt>
      <trkpt lat="46.01067" lon="4.61695">
        <ele>443</ele>
        <time>2022-10-24T21:38:20Z</time>
      </trkpt>
      <trkpt lat="46.01101" lon="4.61719">
        <ele>447</ele>
        <time>2022-10-24T21:39:10Z</time>
      </trkpt>
      <trkpt lat="46.01143" lon="4.61735">
        <ele>452</ele>
        <time>2022-10-24T21:40:08Z</time>
      </trkpt>
      <trkpt lat="46.01188" lon="4.61741">
        <ele>461</ele>
        <time>2022-10-24T21:41:08Z</time>
      </trkpt>
      <trkpt lat="46.012" lon="4.6176">
        <ele>463</ele>
        <time>2022-10-24T21:41:32Z</time>
      </trkpt>
      <trkpt lat="46.01203" lon="4.61785">
        <ele>464</ele>
        <time>2022-10-24T21:41:56Z</time>
      </trkpt>
      <trkpt lat="46.01202" lon="4.61816">
        <ele>463</ele>
        <time>2022-10-24T21:42:24Z</time>
      </trkpt>
      <trkpt lat="46.01198" lon="4.61849">
        <ele>462</ele>
        <time>2022-10-24T21:42:56Z</time>
      </trkpt>
      <trkpt lat="46.01199" lon="4.61869">
        <ele>464</ele>
        <time>2022-10-24T21:43:14Z</time>
      </trkpt>
      <trkpt lat="46.0119" lon="4.61886">
        <ele>462</ele>
        <time>2022-10-24T21:43:34Z</time>
      </trkpt>
      <trkpt lat="46.01169" lon="4.61918">
        <ele>458</ele>
        <time>2022-10-24T21:44:15Z</time>
      </trkpt>
      <trkpt lat="46.01155" lon="4.61935">
        <ele>455</ele>
        <time>2022-10-24T21:44:39Z</time>
      </trkpt>
      <trkpt lat="46.01132" lon="4.61957">
        <ele>450</ele>
        <time>2022-10-24T21:45:16Z</time>
      </trkpt>
      <trkpt lat="46.0113" lon="4.61965">
        <ele>450</ele>
        <time>2022-10-24T21:45:24Z</time>
      </trkpt>
      <trkpt lat="46.01121" lon="4.61978">
        <ele>449</ele>
        <time>2022-10-24T21:45:41Z</time>
      </trkpt>
      <trkpt lat="46.01064" lon="4.62092">
        <ele>447</ele>
        <time>2022-10-24T21:47:51Z</time>
      </trkpt>
      <trkpt lat="46.0106" lon="4.62114">
        <ele>447</ele>
        <time>2022-10-24T21:48:12Z</time>
      </trkpt>
      <trkpt lat="46.0106" lon="4.62163">
        <ele>451</ele>
        <time>2022-10-24T21:48:58Z</time>
      </trkpt>
      <trkpt lat="46.01063" lon="4.62184">
        <ele>450</ele>
        <time>2022-10-24T21:49:17Z</time>
      </trkpt>
      <trkpt lat="46.0107" lon="4.62198">
        <ele>450</ele>
        <time>2022-10-24T21:49:33Z</time>
      </trkpt>
      <trkpt lat="46.01095" lon="4.62241">
        <ele>448</ele>
        <time>2022-10-24T21:50:25Z</time>
      </trkpt>
      <trkpt lat="46.0113" lon="4.62245">
        <ele>450</ele>
        <time>2022-10-24T21:51:12Z</time>
      </trkpt>
      <trkpt lat="46.01192" lon="4.62245">
        <ele>451</ele>
        <time>2022-10-24T21:52:35Z</time>
      </trkpt>
      <trkpt lat="46.01228" lon="4.6224">
        <ele>451</ele>
        <time>2022-10-24T21:53:23Z</time>
      </trkpt>
      <trkpt lat="46.0124" lon="4.62245">
        <ele>449</ele>
        <time>2022-10-24T21:53:40Z</time>
      </trkpt>
      <trkpt lat="46.01241" lon="4.62251">
        <ele>447</ele>
        <time>2022-10-24T21:53:46Z</time>
      </trkpt>
      <trkpt lat="46.01245" lon="4.62256">
        <ele>446</ele>
        <time>2022-10-24T21:53:53Z</time>
      </trkpt>
      <trkpt lat="46.01266" lon="4.6226">
        <ele>444</ele>
        <time>2022-10-24T21:54:21Z</time>
      </trkpt>
      <trkpt lat="46.01276" lon="4.62272">
        <ele>442</ele>
        <time>2022-10-24T21:54:38Z</time>
      </trkpt>
      <trkpt lat="46.01299" lon="4.62308">
        <ele>434</ele>
        <time>2022-10-24T21:55:24Z</time>
      </trkpt>
      <trkpt lat="46.01309" lon="4.62328">
        <ele>431</ele>
        <time>2022-10-24T21:55:47Z</time>
      </trkpt>
      <trkpt lat="46.01318" lon="4.62351">
        <ele>428</ele>
        <time>2022-10-24T21:56:11Z</time>
      </trkpt>
      <trkpt lat="46.01322" lon="4.62368">
        <ele>426</ele>
        <time>2022-10-24T21:56:28Z</time>
      </trkpt>
      <trkpt lat="46.01329" lon="4.62377">
        <ele>425</ele>
        <time>2022-10-24T21:56:40Z</time>
      </trkpt>
      <trkpt lat="46.01389" lon="4.62421">
        <ele>419</ele>
        <time>2022-10-24T21:58:10Z</time>
      </trkpt>
      <trkpt lat="46.01407" lon="4.62439">
        <ele>416</ele>
        <time>2022-10-24T21:58:39Z</time>
      </trkpt>
      <trkpt lat="46.01465" lon="4.62485">
        <ele>410</ele>
        <time>2022-10-24T22:00:08Z</time>
      </trkpt>
      <trkpt lat="46.0149" lon="4.62502">
        <ele>409</ele>
        <time>2022-10-24T22:00:45Z</time>
      </trkpt>
      <trkpt lat="46.01517" lon="4.6251">
        <ele>409</ele>
        <time>2022-10-24T22:01:21Z</time>
      </trkpt>
      <trkpt lat="46.01538" lon="4.6252">
        <ele>409</ele>
        <time>2022-10-24T22:01:51Z</time>
      </trkpt>
      <trkpt lat="46.01564" lon="4.62543">
        <ele>409</ele>
        <time>2022-10-24T22:02:32Z</time>
      </trkpt>
      <trkpt lat="46.01577" lon="4.62555">
        <ele>409</ele>
        <time>2022-10-24T22:02:52Z</time>
      </trkpt>
      <trkpt lat="46.01592" lon="4.6256">
        <ele>408</ele>
        <time>2022-10-24T22:03:13Z</time>
      </trkpt>
      <trkpt lat="46.0161" lon="4.62559">
        <ele>407</ele>
        <time>2022-10-24T22:03:37Z</time>
      </trkpt>
      <trkpt lat="46.01608" lon="4.62577">
        <ele>406</ele>
        <time>2022-10-24T22:03:54Z</time>
      </trkpt>
      <trkpt lat="46.01604" lon="4.62608">
        <ele>405</ele>
        <time>2022-10-24T22:04:23Z</time>
      </trkpt>
      <trkpt lat="46.01582" lon="4.62703">
        <ele>401</ele>
        <time>2022-10-24T22:05:56Z</time>
      </trkpt>
      <trkpt lat="46.01544" lon="4.62842">
        <ele>393</ele>
        <time>2022-10-24T22:08:14Z</time>
      </trkpt>
      <trkpt lat="46.01548" lon="4.62846">
        <ele>392</ele>
        <time>2022-10-24T22:08:21Z</time>
      </trkpt>
      <trkpt lat="46.01549" lon="4.62859">
        <ele>391</ele>
        <time>2022-10-24T22:08:33Z</time>
      </trkpt>
      <trkpt lat="46.01556" lon="4.6289">
        <ele>389</ele>
        <time>2022-10-24T22:09:03Z</time>
      </trkpt>
      <trkpt lat="46.01577" lon="4.62952">
        <ele>386</ele>
        <time>2022-10-24T22:10:07Z</time>
      </trkpt>
      <trkpt lat="46.01505" lon="4.63193">
        <ele>386</ele>
        <time>2022-10-24T22:14:10Z</time>
      </trkpt>
      <trkpt lat="46.01505" lon="4.63396">
        <ele>373</ele>
        <time>2022-10-24T22:17:18Z</time>
      </trkpt>
      <trkpt lat="46.0147" lon="4.63426">
        <ele>374</ele>
        <time>2022-10-24T22:18:12Z</time>
      </trkpt>
      <trkpt lat="46.01516" lon="4.63573">
        <ele>362</ele>
        <time>2022-10-24T22:20:42Z</time>
      </trkpt>
      <trkpt lat="46.01535" lon="4.63537">
        <ele>361</ele>
        <time>2022-10-24T22:21:24Z</time>
      </trkpt>
      <trkpt lat="46.01582" lon="4.6359">
        <ele>354</ele>
        <time>2022-10-24T22:22:43Z</time>
      </trkpt>
      <trkpt lat="46.01599" lon="4.63845">
        <ele>349</ele>
        <time>2022-10-24T22:26:41Z</time>
      </trkpt>
      <trkpt lat="46.01672" lon="4.6386">
        <ele>340</ele>
        <time>2022-10-24T22:28:19Z</time>
      </trkpt>
      <trkpt lat="46.01689" lon="4.64014">
        <ele>338</ele>
        <time>2022-10-24T22:30:44Z</time>
      </trkpt>
      <trkpt lat="46.01674" lon="4.6414">
        <ele>338</ele>
        <time>2022-10-24T22:32:42Z</time>
      </trkpt>
      <trkpt lat="46.01698" lon="4.64242">
        <ele>336</ele>
        <time>2022-10-24T22:34:22Z</time>
      </trkpt>
      <trkpt lat="46.01696" lon="4.6426">
        <ele>336</ele>
        <time>2022-10-24T22:34:39Z</time>
      </trkpt>
      <trkpt lat="46.01637" lon="4.64382">
        <ele>334</ele>
        <time>2022-10-24T22:36:57Z</time>
      </trkpt>
      <trkpt lat="46.01596" lon="4.64451">
        <ele>331</ele>
        <time>2022-10-24T22:38:21Z</time>
      </trkpt>
      <trkpt lat="46.01566" lon="4.64472">
        <ele>328</ele>
        <time>2022-10-24T22:39:05Z</time>
      </trkpt>
      <trkpt lat="46.01529" lon="4.6449">
        <ele>325</ele>
        <time>2022-10-24T22:39:58Z</time>
      </trkpt>
      <trkpt lat="46.01503" lon="4.6451">
        <ele>323</ele>
        <time>2022-10-24T22:40:37Z</time>
      </trkpt>
      <trkpt lat="46.01477" lon="4.64534">
        <ele>320</ele>
        <time>2022-10-24T22:41:18Z</time>
      </trkpt>
      <trkpt lat="46.01459" lon="4.64546">
        <ele>318</ele>
        <time>2022-10-24T22:41:45Z</time>
      </trkpt>
      <trkpt lat="46.01426" lon="4.64561">
        <ele>314</ele>
        <time>2022-10-24T22:42:31Z</time>
      </trkpt>
      <trkpt lat="46.01389" lon="4.64574">
        <ele>310</ele>
        <time>2022-10-24T22:43:22Z</time>
      </trkpt>
      <trkpt lat="46.01387" lon="4.64567">
        <ele>311</ele>
        <time>2022-10-24T22:43:29Z</time>
      </trkpt>
      <trkpt lat="46.01389" lon="4.64574">
        <ele>310</ele>
        <time>2022-10-24T22:43:36Z</time>
      </trkpt>
      <trkpt lat="46.01332" lon="4.6458">
        <ele>307</ele>
        <time>2022-10-24T22:44:52Z</time>
      </trkpt>
      <trkpt lat="46.01314" lon="4.64584">
        <ele>306</ele>
        <time>2022-10-24T22:45:16Z</time>
      </trkpt>
      <trkpt lat="46.01258" lon="4.64604">
        <ele>302</ele>
        <time>2022-10-24T22:46:33Z</time>
      </trkpt>
      <trkpt lat="46.01229" lon="4.6461">
        <ele>300</ele>
        <time>2022-10-24T22:47:12Z</time>
      </trkpt>
      <trkpt lat="46.01195" lon="4.64611">
        <ele>299</ele>
        <time>2022-10-24T22:47:58Z</time>
      </trkpt>
      <trkpt lat="46.01158" lon="4.64607">
        <ele>298</ele>
        <time>2022-10-24T22:48:47Z</time>
      </trkpt>
      <trkpt lat="46.01109" lon="4.64584">
        <ele>296</ele>
        <time>2022-10-24T22:49:56Z</time>
      </trkpt>
      <trkpt lat="46.00985" lon="4.64511">
        <ele>295</ele>
        <time>2022-10-24T22:52:55Z</time>
      </trkpt>
      <trkpt lat="46.00978" lon="4.6453">
        <ele>294</ele>
        <time>2022-10-24T22:53:15Z</time>
      </trkpt>
      <trkpt lat="46.00906" lon="4.64525">
        <ele>299</ele>
        <time>2022-10-24T22:54:51Z</time>
      </trkpt>
      <trkpt lat="46.00904" lon="4.64523">
        <ele>299</ele>
        <time>2022-10-24T22:54:54Z</time>
      </trkpt>
      <trkpt lat="46.00904" lon="4.6452">
        <ele>299</ele>
        <time>2022-10-24T22:54:57Z</time>
      </trkpt>
      <trkpt lat="46.00908" lon="4.64491">
        <ele>300</ele>
        <time>2022-10-24T22:55:24Z</time>
      </trkpt>
      <trkpt lat="46.00871" lon="4.64476">
        <ele>301</ele>
        <time>2022-10-24T22:56:16Z</time>
      </trkpt>
      <trkpt lat="46.00778" lon="4.64459">
        <ele>304</ele>
        <time>2022-10-24T22:58:21Z</time>
      </trkpt>
      <trkpt lat="46.00743" lon="4.64455">
        <ele>305</ele>
        <time>2022-10-24T22:59:07Z</time>
      </trkpt>
      <trkpt lat="46.00737" lon="4.6446">
        <ele>305</ele>
        <time>2022-10-24T22:59:17Z</time>
      </trkpt>
      <trkpt lat="46.00713" lon="4.64499">
        <ele>304</ele>
        <time>2022-10-24T23:00:05Z</time>
      </trkpt>
      <trkpt lat="46.00636" lon="4.64601">
        <ele>299</ele>
        <time>2022-10-24T23:02:25Z</time>
      </trkpt>
      <trkpt lat="46.00587" lon="4.64674">
        <ele>297</ele>
        <time>2022-10-24T23:03:59Z</time>
      </trkpt>
      <trkpt lat="46.00554" lon="4.64729">
        <ele>292</ele>
        <time>2022-10-24T23:05:06Z</time>
      </trkpt>
      <trkpt lat="46.00544" lon="4.64754">
        <ele>291</ele>
        <time>2022-10-24T23:05:33Z</time>
      </trkpt>
      <trkpt lat="46.00534" lon="4.648">
        <ele>289</ele>
        <time>2022-10-24T23:06:18Z</time>
      </trkpt>
      <trkpt lat="46.0053" lon="4.64876">
        <ele>287</ele>
        <time>2022-10-24T23:07:28Z</time>
      </trkpt>
      <trkpt lat="46.00529" lon="4.64884">
        <ele>287</ele>
        <time>2022-10-24T23:07:36Z</time>
      </trkpt>
      <trkpt lat="46.00526" lon="4.64894">
        <ele>286</ele>
        <time>2022-10-24T23:07:46Z</time>
      </trkpt>
      <trkpt lat="46.00523" lon="4.64917">
        <ele>285</ele>
        <time>2022-10-24T23:08:08Z</time>
      </trkpt>
      <trkpt lat="46.00522" lon="4.64975">
        <ele>284</ele>
        <time>2022-10-24T23:09:01Z</time>
      </trkpt>
      <trkpt lat="46.00519" lon="4.65029">
        <ele>283</ele>
        <time>2022-10-24T23:09:51Z</time>
      </trkpt>
      <trkpt lat="46.00496" lon="4.65147">
        <ele>281</ele>
        <time>2022-10-24T23:11:45Z</time>
      </trkpt>
      <trkpt lat="46.00488" lon="4.65241">
        <ele>278</ele>
        <time>2022-10-24T23:13:13Z</time>
      </trkpt>
      <trkpt lat="46.0045" lon="4.65219">
        <ele>272</ele>
        <time>2022-10-24T23:14:08Z</time>
      </trkpt>
      <trkpt lat="46.00446" lon="4.65211">
        <ele>271</ele>
        <time>2022-10-24T23:14:17Z</time>
      </trkpt>
      <trkpt lat="46.00432" lon="4.65063">
        <ele>267</ele>
        <time>2022-10-24T23:16:35Z</time>
      </trkpt>
      <trkpt lat="46.00412" lon="4.65022">
        <ele>261</ele>
        <time>2022-10-24T23:17:22Z</time>
      </trkpt>
      <trkpt lat="46.00399" lon="4.64999">
        <ele>259</ele>
        <time>2022-10-24T23:17:49Z</time>
      </trkpt>
      <trkpt lat="46.00392" lon="4.64991">
        <ele>258</ele>
        <time>2022-10-24T23:18:01Z</time>
      </trkpt>
      <trkpt lat="46.00376" lon="4.64981">
        <ele>256</ele>
        <time>2022-10-24T23:18:24Z</time>
      </trkpt>
      <trkpt lat="46.00325" lon="4.64959">
        <ele>252</ele>
        <time>2022-10-24T23:19:35Z</time>
      </trkpt>
      <trkpt lat="46.00308" lon="4.64954">
        <ele>252</ele>
        <time>2022-10-24T23:19:58Z</time>
      </trkpt>
      <trkpt lat="46.00314" lon="4.64917">
        <ele>252</ele>
        <time>2022-10-24T23:20:34Z</time>
      </trkpt>
      <trkpt lat="46.00309" lon="4.64916">
        <ele>253</ele>
        <time>2022-10-24T23:20:40Z</time>
      </trkpt>
      <trkpt lat="46.00303" lon="4.64914">
        <ele>253</ele>
        <time>2022-10-24T23:20:49Z</time>
      </trkpt>
      <trkpt lat="46.00184" lon="4.64875">
        <ele>260</ele>
        <time>2022-10-24T23:23:31Z</time>
      </trkpt>
      <trkpt lat="46.00166" lon="4.64875">
        <ele>261</ele>
        <time>2022-10-24T23:23:56Z</time>
      </trkpt>
      <trkpt lat="46.00176" lon="4.64874">
        <ele>260</ele>
        <time>2022-10-24T23:24:09Z</time>
      </trkpt>
      <trkpt lat="46.00182" lon="4.64815">
        <ele>263</ele>
        <time>2022-10-24T23:25:04Z</time>
      </trkpt>
      <trkpt lat="46.00175" lon="4.64622">
        <ele>275</ele>
        <time>2022-10-24T23:28:03Z</time>
      </trkpt>
    </trkseg>
  </trk>
</gpx>